Decoded Metar for KSPF (SPEARFISH/CLYDE in SD, USA) (IATA:SPF) | Meteo·Mobile Aviation Weather
aviador You're here:

KSPF Decoded Metar

SPEARFISH/CLYDE in SD, USA
Report Time2019-01-17 23:35:00
UTC Time2019-01-17 23:56:04
Flight Rules lifr LIFR
Wind050° at 06 kt
W.Decomp.*RWY 04: 6.0 kt HW 0.1 kt LCW
RWY 08: 4.5 kt HW 3.9 kt LCW
RWY 31: 0.1 kt HW 6.0 kt RCW
W.Rank050° ranks 17
Current wind is below 050° avg. (6.2)
Visibility1609 m
Phenomena:Mist
Clouds:Overcast 004 Hf
Ceiling400 ft
Temp-5°C (ISA -12)
Dew Point-5°C (100% RH)
AAT-9.8°C
QNH1011 hPa
Density Alt2,539 ft
Elevation3,898 ft
Report Wrong Elevation
Raw Report
KSPF 172335Z AUTO 05006KT 1SM BR OVC004 M05/M05 A2986 RMK AO2
PWINO=

Extra information for KSPF:More info

Metar Taf Metar & Taf Last 4 Metars F.Rules Stats Wind Profile Meteogram Temp Stats Airport Information Weather charts Add Link Nearby VenuesMetar ALERT Operation Metar Decoded Social comments

AIRNAV info for KSPF